sensor_id;sensor_type;location;lat;lon;timestamp;pressure;altitude;pressure_sealevel;temperature;humidity
63439;BME280;49567;48.958;8.294;2022-07-21T00:01:33;100633.84;;;23.70;70.50
63439;BME280;49567;48.958;8.294;2022-07-21T00:03:58;100623.44;;;23.50;70.91
63439;BME280;49567;48.958;8.294;2022-07-21T00:06:24;100611.75;;;23.44;71.02
63439;BME280;49567;48.958;8.294;2022-07-21T00:08:49;100618.41;;;23.35;71.15
63439;BME280;49567;48.958;8.294;2022-07-21T00:11:15;100619.03;;;23.32;71.29
63439;BME280;49567;48.958;8.294;2022-07-21T00:13:40;100610.75;;;23.49;71.10
63439;BME280;49567;48.958;8.294;2022-07-21T00:16:06;100622.16;;;23.64;70.44
63439;BME280;49567;48.958;8.294;2022-07-21T00:18:31;100621.47;;;23.67;70.13
63439;BME280;49567;48.958;8.294;2022-07-21T00:20:57;100624.25;;;23.67;69.98
63439;BME280;49567;48.958;8.294;2022-07-21T00:23:23;100623.44;;;23.58;70.52
63439;BME280;49567;48.958;8.294;2022-07-21T00:25:49;100632.53;;;23.59;70.51
63439;BME280;49567;48.958;8.294;2022-07-21T00:28:15;100640.19;;;23.45;70.72
63439;BME280;49567;48.958;8.294;2022-07-21T00:30:40;100635.47;;;23.37;71.04
63439;BME280;49567;48.958;8.294;2022-07-21T00:33:05;100648.00;;;23.34;70.95
63439;BME280;49567;48.958;8.294;2022-07-21T00:35:31;100645.53;;;23.33;70.89
63439;BME280;49567;48.958;8.294;2022-07-21T00:37:56;100651.56;;;23.26;70.87
63439;BME280;49567;48.958;8.294;2022-07-21T00:40:22;100651.22;;;23.19;71.41
63439;BME280;49567;48.958;8.294;2022-07-21T00:42:47;100654.31;;;23.26;71.01
63439;BME280;49567;48.958;8.294;2022-07-21T00:45:12;100653.84;;;23.33;71.07
63439;BME280;49567;48.958;8.294;2022-07-21T00:47:38;100660.19;;;23.33;70.80
63439;BME280;49567;48.958;8.294;2022-07-21T00:50:07;100648.31;;;23.24;70.80
63439;BME280;49567;48.958;8.294;2022-07-21T00:52:33;100654.00;;;23.19;71.43
63439;BME280;49567;48.958;8.294;2022-07-21T00:54:58;100661.00;;;23.16;71.21
63439;BME280;49567;48.958;8.294;2022-07-21T00:57:23;100658.88;;;23.13;71.16
63439;BME280;49567;48.958;8.294;2022-07-21T00:59:49;100651.53;;;23.09;71.24
63439;BME280;49567;48.958;8.294;2022-07-21T01:02:15;100655.94;;;23.01;71.82
63439;BME280;49567;48.958;8.294;2022-07-21T01:04:41;100643.91;;;23.06;71.82
63439;BME280;49567;48.958;8.294;2022-07-21T01:07:06;100659.53;;;23.19;71.19
63439;BME280;49567;48.958;8.294;2022-07-21T01:09:33;100656.78;;;23.27;70.79
63439;BME280;49567;48.958;8.294;2022-07-21T01:11:59;100649.63;;;23.26;70.88
63439;BME280;49567;48.958;8.294;2022-07-21T01:14:24;100646.53;;;23.11;71.13
63439;BME280;49567;48.958;8.294;2022-07-21T01:16:50;100663.06;;;22.94;71.80
63439;BME280;49567;48.958;8.294;2022-07-21T01:19:15;100669.59;;;22.98;71.70
63439;BME280;49567;48.958;8.294;2022-07-21T01:21:43;100664.06;;;23.06;71.18
63439;BME280;49567;48.958;8.294;2022-07-21T01:24:09;100667.31;;;23.00;71.57
63439;BME280;49567;48.958;8.294;2022-07-21T01:26:49;100669.41;;;22.94;71.76
63439;BME280;49567;48.958;8.294;2022-07-21T01:29:16;100668.91;;;22.84;72.21
63439;BME280;49567;48.958;8.294;2022-07-21T01:31:44;100679.31;;;22.87;72.26
63439;BME280;49567;48.958;8.294;2022-07-21T01:34:11;100674.13;;;22.85;72.25
63439;BME280;49567;48.958;8.294;2022-07-21T01:36:37;100664.69;;;22.86;72.36
63439;BME280;49567;48.958;8.294;2022-07-21T01:39:04;100676.88;;;22.94;72.19
63439;BME280;49567;48.958;8.294;2022-07-21T01:41:48;100676.41;;;23.09;71.70
63439;BME280;49567;48.958;8.294;2022-07-21T01:44:14;100687.00;;;23.07;71.73
63439;BME280;49567;48.958;8.294;2022-07-21T01:46:49;100689.13;;;23.10;71.51
63439;BME280;49567;48.958;8.294;2022-07-21T01:49:16;100678.06;;;23.18;71.29
63439;BME280;49567;48.958;8.294;2022-07-21T01:51:42;100691.91;;;23.27;70.93
63439;BME280;49567;48.958;8.294;2022-07-21T01:54:08;100691.41;;;23.16;71.17
63439;BME280;49567;48.958;8.294;2022-07-21T01:56:35;100686.53;;;23.22;70.93
63439;BME280;49567;48.958;8.294;2022-07-21T01:59:01;100694.81;;;23.13;71.17
63439;BME280;49567;48.958;8.294;2022-07-21T02:01:28;100697.56;;;23.05;71.63
63439;BME280;49567;48.958;8.294;2022-07-21T02:03:55;100700.16;;;23.10;71.38
63439;BME280;49567;48.958;8.294;2022-07-21T02:06:21;100704.25;;;23.12;71.32
63439;BME280;49567;48.958;8.294;2022-07-21T02:08:47;100705.88;;;23.05;71.62
63439;BME280;49567;48.958;8.294;2022-07-21T02:11:13;100709.59;;;23.00;71.93
63439;BME280;49567;48.958;8.294;2022-07-21T02:13:39;100704.56;;;23.11;71.44
63439;BME280;49567;48.958;8.294;2022-07-21T02:16:05;100713.19;;;23.09;71.22
63439;BME280;49567;48.958;8.294;2022-07-21T02:18:30;100717.88;;;23.09;71.31
63439;BME280;49567;48.958;8.294;2022-07-21T02:20:56;100716.63;;;23.15;71.09
63439;BME280;49567;48.958;8.294;2022-07-21T02:23:22;100721.00;;;23.07;71.57
63439;BME280;49567;48.958;8.294;2022-07-21T02:25:48;100716.75;;;23.01;71.67
63439;BME280;49567;48.958;8.294;2022-07-21T02:28:14;100722.94;;;22.98;71.83
63439;BME280;49567;48.958;8.294;2022-07-21T02:30:39;100727.47;;;23.03;71.84
63439;BME280;49567;48.958;8.294;2022-07-21T02:33:05;100724.06;;;23.06;71.61
63439;BME280;49567;48.958;8.294;2022-07-21T02:35:31;100719.88;;;23.08;71.54
63439;BME280;49567;48.958;8.294;2022-07-21T02:37:56;100716.28;;;23.08;71.41
63439;BME280;49567;48.958;8.294;2022-07-21T02:40:22;100715.13;;;23.09;71.51
63439;BME280;49567;48.958;8.294;2022-07-21T02:42:47;100724.56;;;23.08;71.75
63439;BME280;49567;48.958;8.294;2022-07-21T02:45:12;100719.53;;;23.10;71.47
63439;BME280;49567;48.958;8.294;2022-07-21T02:47:51;100720.00;;;23.12;71.61
63439;BME280;49567;48.958;8.294;2022-07-21T02:50:18;100719.69;;;23.22;71.16
63439;BME280;49567;48.958;8.294;2022-07-21T02:52:44;100721.03;;;23.24;71.19
63439;BME280;49567;48.958;8.294;2022-07-21T02:55:09;100716.94;;;23.13;71.29
63439;BME280;49567;48.958;8.294;2022-07-21T02:57:35;100724.41;;;23.13;71.55
63439;BME280;49567;48.958;8.294;2022-07-21T03:00:00;100715.94;;;23.09;71.72
63439;BME280;49567;48.958;8.294;2022-07-21T03:02:26;100727.69;;;23.15;71.57
63439;BME280;49567;48.958;8.294;2022-07-21T03:04:51;100727.53;;;23.20;71.15
63439;BME280;49567;48.958;8.294;2022-07-21T03:07:17;100708.97;;;23.29;70.92
63439;BME280;49567;48.958;8.294;2022-07-21T03:09:42;100723.16;;;23.36;70.75
63439;BME280;49567;48.958;8.294;2022-07-21T03:12:07;100717.63;;;23.36;70.49
63439;BME280;49567;48.958;8.294;2022-07-21T03:14:32;100719.28;;;23.46;69.78
63439;BME280;49567;48.958;8.294;2022-07-21T03:16:58;100725.31;;;23.48;69.72
63439;BME280;49567;48.958;8.294;2022-07-21T03:19:25;100722.22;;;23.41;70.39
63439;BME280;49567;48.958;8.294;2022-07-21T03:21:50;100714.75;;;23.41;70.45
63439;BME280;49567;48.958;8.294;2022-07-21T03:24:16;100722.03;;;23.46;70.31
63439;BME280;49567;48.958;8.294;2022-07-21T03:26:41;100724.97;;;23.41;70.32
63439;BME280;49567;48.958;8.294;2022-07-21T03:29:06;100726.38;;;23.30;70.88
63439;BME280;49567;48.958;8.294;2022-07-21T03:31:32;100730.75;;;23.22;70.92
63439;BME280;49567;48.958;8.294;2022-07-21T03:33:57;100733.22;;;23.32;70.83
63439;BME280;49567;48.958;8.294;2022-07-21T03:36:22;100744.28;;;23.32;70.91
63439;BME280;49567;48.958;8.294;2022-07-21T03:38:48;100737.94;;;23.32;70.72
63439;BME280;49567;48.958;8.294;2022-07-21T03:41:14;100744.28;;;23.23;70.95
63439;BME280;49567;48.958;8.294;2022-07-21T03:43:40;100747.19;;;23.18;71.05
63439;BME280;49567;48.958;8.294;2022-07-21T03:46:05;100746.72;;;23.25;70.88
63439;BME280;49567;48.958;8.294;2022-07-21T03:48:30;100751.75;;;23.32;70.83
63439;BME280;49567;48.958;8.294;2022-07-21T03:50:55;100742.47;;;23.19;71.08
63439;BME280;49567;48.958;8.294;2022-07-21T03:53:20;100753.34;;;23.15;71.20
63439;BME280;49567;48.958;8.294;2022-07-21T03:55:46;100749.94;;;23.10;71.27
63439;BME280;49567;48.958;8.294;2022-07-21T03:58:11;100748.47;;;23.12;71.46
63439;BME280;49567;48.958;8.294;2022-07-21T04:00:42;100755.16;;;23.11;70.97
63439;BME280;49567;48.958;8.294;2022-07-21T04:03:08;100749.28;;;23.04;71.57
63439;BME280;49567;48.958;8.294;2022-07-21T04:05:36;100749.81;;;23.15;71.13
63439;BME280;49567;48.958;8.294;2022-07-21T04:08:02;100752.25;;;23.25;70.45
63439;BME280;49567;48.958;8.294;2022-07-21T04:10:32;100749.16;;;23.18;71.01
63439;BME280;49567;48.958;8.294;2022-07-21T04:12:59;100754.19;;;23.16;71.11
63439;BME280;49567;48.958;8.294;2022-07-21T04:15:24;100749.28;;;23.13;70.99
63439;BME280;49567;48.958;8.294;2022-07-21T04:17:50;100747.03;;;23.15;71.05
63439;BME280;49567;48.958;8.294;2022-07-21T04:20:16;100746.88;;;23.11;71.31
63439;BME280;49567;48.958;8.294;2022-07-21T04:22:43;100753.34;;;23.15;71.22
63439;BME280;49567;48.958;8.294;2022-07-21T04:25:09;100744.75;;;23.25;70.67
63439;BME280;49567;48.958;8.294;2022-07-21T04:27:35;100747.69;;;23.29;70.95
63439;BME280;49567;48.958;8.294;2022-07-21T04:30:01;100750.16;;;23.31;70.55
63439;BME280;49567;48.958;8.294;2022-07-21T04:32:27;100748.03;;;23.27;70.60
63439;BME280;49567;48.958;8.294;2022-07-21T04:34:53;100748.69;;;23.33;70.52
63439;BME280;49567;48.958;8.294;2022-07-21T04:37:18;100744.16;;;23.37;70.23
63439;BME280;49567;48.958;8.294;2022-07-21T04:39:43;100744.34;;;23.41;69.91
63439;BME280;49567;48.958;8.294;2022-07-21T04:42:09;100755.06;;;23.42;69.95
63439;BME280;49567;48.958;8.294;2022-07-21T04:44:34;100744.69;;;23.48;69.76
63439;BME280;49567;48.958;8.294;2022-07-21T04:46:59;100752.81;;;23.53;69.82
63439;BME280;49567;48.958;8.294;2022-07-21T04:49:24;100753.63;;;23.53;69.88
63439;BME280;49567;48.958;8.294;2022-07-21T04:51:50;100759.47;;;23.52;69.99
63439;BME280;49567;48.958;8.294;2022-07-21T04:54:15;100756.88;;;23.47;70.06
63439;BME280;49567;48.958;8.294;2022-07-21T04:56:41;100769.88;;;23.46;70.17
63439;BME280;49567;48.958;8.294;2022-07-21T04:59:08;100778.63;;;23.40;70.36
63439;BME280;49567;48.958;8.294;2022-07-21T05:01:33;100780.78;;;23.43;70.27
63439;BME280;49567;48.958;8.294;2022-07-21T05:03:58;100785.28;;;23.39;70.39
63439;BME280;49567;48.958;8.294;2022-07-21T05:06:23;100791.97;;;23.38;70.49
63439;BME280;49567;48.958;8.294;2022-07-21T05:08:49;100788.88;;;23.39;70.73
63439;BME280;49567;48.958;8.294;2022-07-21T05:11:15;100796.06;;;23.40;70.66
63439;BME280;49567;48.958;8.294;2022-07-21T05:13:40;100797.50;;;23.38;70.59
63439;BME280;49567;48.958;8.294;2022-07-21T05:16:05;100796.81;;;23.32;70.78
63439;BME280;49567;48.958;8.294;2022-07-21T05:18:31;100795.88;;;23.28;70.89
63439;BME280;49567;48.958;8.294;2022-07-21T05:20:57;100801.22;;;23.33;70.75
63439;BME280;49567;48.958;8.294;2022-07-21T05:23:22;100798.19;;;23.43;70.28
63439;BME280;49567;48.958;8.294;2022-07-21T05:25:47;100794.94;;;23.50;69.64
63439;BME280;49567;48.958;8.294;2022-07-21T05:28:12;100792.84;;;23.47;69.89
63439;BME280;49567;48.958;8.294;2022-07-21T05:30:38;100794.63;;;23.51;69.70
63439;BME280;49567;48.958;8.294;2022-07-21T05:33:03;100798.53;;;23.50;69.55
63439;BME280;49567;48.958;8.294;2022-07-21T05:35:28;100792.31;;;23.45;69.87
63439;BME280;49567;48.958;8.294;2022-07-21T05:37:54;100801.41;;;23.37;70.18
63439;BME280;49567;48.958;8.294;2022-07-21T05:40:19;100792.78;;;23.38;69.97
63439;BME280;49567;48.958;8.294;2022-07-21T05:42:44;100797.38;;;23.43;70.00
63439;BME280;49567;48.958;8.294;2022-07-21T05:45:10;100789.25;;;23.46;69.82
63439;BME280;49567;48.958;8.294;2022-07-21T05:47:37;100793.34;;;23.57;69.48
63439;BME280;49567;48.958;8.294;2022-07-21T05:50:03;100782.94;;;23.71;68.81
63439;BME280;49567;48.958;8.294;2022-07-21T05:52:28;100785.38;;;23.82;68.36
63439;BME280;49567;48.958;8.294;2022-07-21T05:54:54;100783.94;;;23.84;68.25
63439;BME280;49567;48.958;8.294;2022-07-21T05:57:19;100791.91;;;23.86;68.11
63439;BME280;49567;48.958;8.294;2022-07-21T05:59:45;100781.31;;;23.79;68.40
63439;BME280;49567;48.958;8.294;2022-07-21T06:02:10;100781.16;;;23.75;68.40
63439;BME280;49567;48.958;8.294;2022-07-21T06:04:36;100782.13;;;23.71;68.30
63439;BME280;49567;48.958;8.294;2022-07-21T06:07:01;100785.38;;;23.73;68.87
63439;BME280;49567;48.958;8.294;2022-07-21T06:09:26;100783.91;;;23.75;68.79
63439;BME280;49567;48.958;8.294;2022-07-21T06:11:52;100787.50;;;23.76;68.96
63439;BME280;49567;48.958;8.294;2022-07-21T06:14:17;100785.03;;;23.74;69.19
63439;BME280;49567;48.958;8.294;2022-07-21T06:16:43;100795.81;;;23.67;69.27
63439;BME280;49567;48.958;8.294;2022-07-21T06:19:08;100799.22;;;23.64;69.31
63439;BME280;49567;48.958;8.294;2022-07-21T06:21:34;100795.25;;;23.48;70.13
63439;BME280;49567;48.958;8.294;2022-07-21T06:23:59;100801.97;;;23.56;70.31
63439;BME280;49567;48.958;8.294;2022-07-21T06:26:25;100801.13;;;23.55;70.37
63439;BME280;49567;48.958;8.294;2022-07-21T06:28:50;100796.59;;;23.59;70.25
63439;BME280;49567;48.958;8.294;2022-07-21T06:31:16;100799.53;;;23.71;69.61
63439;BME280;49567;48.958;8.294;2022-07-21T06:33:41;100801.19;;;23.90;69.38
63439;BME280;49567;48.958;8.294;2022-07-21T06:36:07;100803.28;;;24.01;68.44
63439;BME280;49567;48.958;8.294;2022-07-21T06:38:33;100808.81;;;24.01;68.53
63439;BME280;49567;48.958;8.294;2022-07-21T06:40:59;100810.44;;;24.11;68.14
63439;BME280;49567;48.958;8.294;2022-07-21T06:43:25;100811.31;;;24.20;67.48
63439;BME280;49567;48.958;8.294;2022-07-21T06:45:50;100817.16;;;24.18;67.31
63439;BME280;49567;48.958;8.294;2022-07-21T06:48:18;100814.38;;;24.18;67.75
63439;BME280;49567;48.958;8.294;2022-07-21T06:50:43;100816.34;;;24.18;67.74
63439;BME280;49567;48.958;8.294;2022-07-21T06:53:09;100812.41;;;24.10;67.54
63439;BME280;49567;48.958;8.294;2022-07-21T06:55:35;100814.03;;;24.03;68.04
63439;BME280;49567;48.958;8.294;2022-07-21T06:58:15;100816.47;;;24.04;68.17
63439;BME280;49567;48.958;8.294;2022-07-21T07:00:44;100820.22;;;24.08;67.98
63439;BME280;49567;48.958;8.294;2022-07-21T07:03:10;100824.81;;;24.13;67.60
63439;BME280;49567;48.958;8.294;2022-07-21T07:05:36;100827.41;;;24.18;67.09
63439;BME280;49567;48.958;8.294;2022-07-21T07:08:02;100830.34;;;24.30;66.59
63439;BME280;49567;48.958;8.294;2022-07-21T07:10:28;100825.47;;;24.36;66.41
63439;BME280;49567;48.958;8.294;2022-07-21T07:12:53;100830.69;;;24.28;66.67
63439;BME280;49567;48.958;8.294;2022-07-21T07:15:22;100827.09;;;24.28;66.52
63439;BME280;49567;48.958;8.294;2022-07-21T07:17:47;100821.41;;;24.33;65.91
63439;BME280;49567;48.958;8.294;2022-07-21T07:20:12;100837.19;;;24.33;66.27
63439;BME280;49567;48.958;8.294;2022-07-21T07:22:38;100841.41;;;24.47;65.72
63439;BME280;49567;48.958;8.294;2022-07-21T07:25:04;100839.13;;;24.49;65.58
63439;BME280;49567;48.958;8.294;2022-07-21T07:27:29;100830.50;;;24.42;66.00
63439;BME280;49567;48.958;8.294;2022-07-21T07:29:54;100841.22;;;24.44;65.51
63439;BME280;49567;48.958;8.294;2022-07-21T07:32:20;100834.56;;;24.45;65.12
